createdAt,value
2018-12-14T00:00:15.748Z,23.90
2018-12-14T00:02:43.595Z,23.25
2018-12-14T00:05:11.428Z,24.15
2018-12-14T00:07:39.244Z,32.90
2018-12-14T00:10:07.812Z,25.88
2018-12-14T00:12:35.676Z,27.20
2018-12-14T00:15:04.000Z,32.98
2018-12-14T00:17:31.832Z,29.63
2018-12-14T00:19:59.739Z,26.93
2018-12-14T00:22:27.668Z,25.77
2018-12-14T00:24:55.573Z,26.75
2018-12-14T00:27:23.658Z,26.57
2018-12-14T00:29:51.524Z,26.73
2018-12-14T00:32:19.591Z,27.82
2018-12-14T00:34:47.448Z,27.32
2018-12-14T00:37:15.275Z,27.87
2018-12-14T00:39:43.087Z,28.30
2018-12-14T00:42:10.923Z,27.60
2018-12-14T00:44:38.840Z,27.27
2018-12-14T00:47:07.443Z,26.10
2018-12-14T00:49:35.464Z,26.02
2018-12-14T00:52:03.287Z,28.70
2018-12-14T00:54:31.075Z,27.40
2018-12-14T00:56:58.924Z,26.60
2018-12-14T00:59:26.736Z,26.73
2018-12-14T01:01:54.669Z,27.52
2018-12-14T01:04:22.468Z,28.10
2018-12-14T01:06:50.313Z,26.20
2018-12-14T01:09:18.217Z,24.98
2018-12-14T01:11:46.153Z,25.05
2018-12-14T01:14:14.072Z,25.45
2018-12-14T01:16:41.977Z,26.02
2018-12-14T01:19:09.887Z,26.07
2018-12-14T01:21:37.907Z,26.97
2018-12-14T01:24:05.719Z,29.18
2018-12-14T01:26:33.654Z,26.90
2018-12-14T01:29:01.460Z,28.47
2018-12-14T01:31:29.283Z,27.85
2018-12-14T01:33:57.104Z,25.27
2018-12-14T01:36:24.931Z,23.67
2018-12-14T01:38:52.735Z,24.70
2018-12-14T01:41:20.568Z,23.87
2018-12-14T01:43:48.381Z,24.67
2018-12-14T01:46:16.192Z,23.85
2018-12-14T01:48:43.999Z,41.37
2018-12-14T01:51:11.839Z,37.40
2018-12-14T01:53:39.643Z,41.75
2018-12-14T01:56:07.479Z,31.48
2018-12-14T01:58:35.387Z,28.92
2018-12-14T02:01:03.228Z,28.30
2018-12-14T02:03:31.128Z,28.15
2018-12-14T02:05:59.210Z,25.55
2018-12-14T02:08:27.056Z,24.55
2018-12-14T02:10:54.880Z,25.77
2018-12-14T02:13:22.703Z,24.95
2018-12-14T02:15:50.512Z,24.30
2018-12-14T02:18:19.436Z,71.77
2018-12-14T02:20:47.261Z,61.83
2018-12-14T02:23:15.094Z,52.20
2018-12-14T02:25:42.993Z,38.88
2018-12-14T02:28:10.830Z,29.18
2018-12-14T02:30:40.549Z,24.57
2018-12-14T02:33:08.606Z,23.65
2018-12-14T02:35:36.576Z,24.32
2018-12-14T02:38:04.670Z,28.17
2018-12-14T02:40:32.525Z,26.35
2018-12-14T02:43:00.445Z,24.40
2018-12-14T02:45:28.451Z,25.90
2018-12-14T02:47:56.274Z,24.57
2018-12-14T02:50:24.193Z,24.63
2018-12-14T02:52:52.020Z,24.15
2018-12-14T02:55:20.325Z,25.43
2018-12-14T02:57:48.584Z,24.30
2018-12-14T03:00:16.780Z,24.75
2018-12-14T03:02:44.976Z,24.40
2018-12-14T03:05:13.250Z,24.32
2018-12-14T03:07:41.521Z,23.85
2018-12-14T03:10:09.349Z,24.07
2018-12-14T03:12:37.660Z,26.62
2018-12-14T03:15:06.300Z,27.20
2018-12-14T03:17:34.538Z,28.23
2018-12-14T03:20:03.420Z,28.90
2018-12-14T03:22:31.988Z,28.35
2018-12-14T03:25:00.179Z,30.32
2018-12-14T03:27:28.489Z,26.17
2018-12-14T03:29:56.748Z,26.62
2018-12-14T03:32:24.970Z,25.85
2018-12-14T03:34:53.136Z,23.95
2018-12-14T03:37:21.466Z,24.90
2018-12-14T03:39:49.797Z,25.95
2018-12-14T03:42:18.058Z,24.57
2018-12-14T03:44:46.253Z,23.92
2018-12-14T03:47:14.548Z,27.30
2018-12-14T03:49:42.770Z,25.82
2018-12-14T03:52:11.087Z,25.72
2018-12-14T03:54:39.356Z,25.55
2018-12-14T03:57:07.558Z,28.20
2018-12-14T03:59:35.763Z,25.72
2018-12-14T04:02:04.167Z,32.00
2018-12-14T04:04:32.408Z,31.90
2018-12-14T04:07:00.634Z,33.65
2018-12-14T04:09:28.829Z,31.65
2018-12-14T04:11:57.097Z,32.03
2018-12-14T04:14:25.255Z,30.43
2018-12-14T04:16:53.488Z,31.75
2018-12-14T04:19:21.752Z,29.87
2018-12-14T04:21:49.734Z,29.10
2018-12-14T04:24:18.148Z,25.90
2018-12-14T04:26:46.413Z,28.07
2018-12-14T04:29:14.606Z,26.68
2018-12-14T04:31:42.907Z,24.12
2018-12-14T04:34:11.182Z,57.00
2018-12-14T04:36:39.342Z,58.13
2018-12-14T04:39:07.968Z,38.13
2018-12-14T04:41:36.290Z,36.35
2018-12-14T04:44:04.553Z,29.42
2018-12-14T04:46:32.752Z,26.85
2018-12-14T04:49:01.056Z,24.75
2018-12-14T04:51:29.370Z,21.70
2018-12-14T04:53:57.621Z,23.05
2018-12-14T04:56:25.910Z,25.55
2018-12-14T04:58:54.171Z,23.80
2018-12-14T05:01:22.405Z,25.92
2018-12-14T05:03:50.613Z,27.82
2018-12-14T05:06:18.993Z,26.82
2018-12-14T05:08:47.262Z,31.12
2018-12-14T05:11:15.457Z,29.90
2018-12-14T05:13:43.698Z,29.48
2018-12-14T05:16:11.979Z,29.02
2018-12-14T05:18:40.192Z,28.42
2018-12-14T05:21:08.510Z,29.87
2018-12-14T05:23:36.831Z,28.02
2018-12-14T05:26:05.152Z,30.12
2018-12-14T05:28:33.081Z,27.05
2018-12-14T05:31:01.001Z,32.85
2018-12-14T05:33:28.916Z,39.83
2018-12-14T05:35:56.841Z,41.35
2018-12-14T05:38:24.777Z,39.67
2018-12-14T05:40:52.723Z,37.55
2018-12-14T05:43:20.656Z,40.03
2018-12-14T05:45:48.592Z,36.45
2018-12-14T05:48:16.549Z,41.37
2018-12-14T05:50:44.474Z,40.92
2018-12-14T05:53:12.402Z,37.78
2018-12-14T05:55:40.345Z,33.05
2018-12-14T05:58:08.272Z,33.33
2018-12-14T06:00:36.316Z,36.17
2018-12-14T06:04:44.931Z,26.57
2018-12-14T06:07:13.142Z,30.02
2018-12-14T06:09:41.333Z,28.30
2018-12-14T06:12:09.953Z,28.73
2018-12-14T06:14:38.095Z,31.12
2018-12-14T06:17:06.391Z,29.00
2018-12-14T06:19:34.651Z,28.87
2018-12-14T06:22:02.877Z,31.90
2018-12-14T06:24:31.087Z,31.70
2018-12-14T06:26:59.377Z,31.40
2018-12-14T06:29:27.736Z,36.25
2018-12-14T06:31:55.928Z,34.98
2018-12-14T06:34:24.231Z,46.42
2018-12-14T06:36:53.726Z,57.80
2018-12-14T06:39:22.220Z,33.15
2018-12-14T06:41:50.589Z,44.45
2018-12-14T06:44:18.759Z,39.23
2018-12-14T06:46:46.985Z,41.08
2018-12-14T06:49:15.156Z,44.85
2018-12-14T06:51:43.376Z,43.45
2018-12-14T06:54:11.697Z,42.40
2018-12-14T06:56:39.965Z,39.27
2018-12-14T06:59:08.168Z,28.53
2018-12-14T07:01:36.458Z,31.15
2018-12-14T07:04:04.749Z,29.75
2018-12-14T07:06:32.988Z,31.75
2018-12-14T07:09:01.316Z,29.18
2018-12-14T07:11:29.580Z,26.87
2018-12-14T07:13:57.801Z,31.75
2018-12-14T07:16:25.968Z,46.42
2018-12-14T07:18:54.223Z,33.80
2018-12-14T07:21:22.517Z,35.68
2018-12-14T07:23:50.789Z,33.28
2018-12-14T07:26:19.000Z,35.47
2018-12-14T07:28:47.208Z,41.02
2018-12-14T07:31:15.498Z,51.70
2018-12-14T07:33:43.630Z,36.93
2018-12-14T07:36:11.852Z,39.57
2018-12-14T07:38:40.065Z,39.43
2018-12-14T07:41:08.382Z,40.73
2018-12-14T07:43:36.649Z,35.40
2018-12-14T07:46:04.869Z,41.23
2018-12-14T07:48:33.182Z,37.23
2018-12-14T07:51:01.400Z,36.63
2018-12-14T07:53:29.584Z,37.73
2018-12-14T07:55:57.898Z,37.97
2018-12-14T07:58:26.219Z,38.40
2018-12-14T08:00:54.380Z,34.07
2018-12-14T08:03:22.605Z,35.07
2018-12-14T08:05:50.815Z,37.73
2018-12-14T08:08:19.144Z,99.40
2018-12-14T08:10:47.348Z,34.60
2018-12-14T08:13:15.743Z,33.57
2018-12-14T08:15:44.011Z,36.43
2018-12-14T08:18:12.124Z,36.53
2018-12-14T08:20:40.316Z,39.77
2018-12-14T08:23:08.580Z,39.87
2018-12-14T08:25:36.942Z,38.43
2018-12-14T08:28:05.205Z,40.57
2018-12-14T08:30:33.427Z,37.73
2018-12-14T08:33:01.839Z,35.53
2018-12-14T08:35:30.120Z,36.27
2018-12-14T08:37:58.478Z,36.47
2018-12-14T08:40:26.902Z,37.10
2018-12-14T08:42:55.250Z,35.37
2018-12-14T08:45:23.602Z,35.83
2018-12-14T08:47:51.970Z,37.13
2018-12-14T08:50:20.184Z,39.93
2018-12-14T08:52:49.313Z,37.43
2018-12-14T08:55:17.527Z,37.87
2018-12-14T08:57:45.908Z,36.93
2018-12-14T09:00:14.180Z,34.37
2018-12-14T09:02:42.448Z,37.07
2018-12-14T09:05:10.769Z,39.37
2018-12-14T09:07:39.088Z,38.73
2018-12-14T09:10:07.409Z,35.43
2018-12-14T09:12:35.819Z,43.97
2018-12-14T09:15:04.192Z,40.67
2018-12-14T09:17:33.580Z,40.87
2018-12-14T09:20:02.612Z,39.67
2018-12-14T09:22:30.657Z,41.90
2018-12-14T09:24:59.960Z,37.57
2018-12-14T09:27:28.296Z,39.10
2018-12-14T09:29:57.210Z,44.23
2018-12-14T09:32:26.104Z,40.47
2018-12-14T09:34:54.479Z,42.77
2018-12-14T09:37:23.416Z,41.67
2018-12-14T09:39:51.668Z,40.17
2018-12-14T09:42:20.130Z,50.97
2018-12-14T09:44:48.433Z,52.97
2018-12-14T09:47:17.356Z,42.53
2018-12-14T09:49:45.557Z,39.43
2018-12-14T09:52:13.872Z,43.13
2018-12-14T09:54:42.138Z,46.27
2018-12-14T09:57:10.358Z,46.03
2018-12-14T09:59:38.771Z,45.57
2018-12-14T10:02:07.390Z,40.33
2018-12-14T10:04:35.476Z,40.77
2018-12-14T10:07:03.797Z,39.90
2018-12-14T10:09:32.060Z,37.73
2018-12-14T10:12:00.253Z,37.33
2018-12-14T10:14:28.457Z,38.90
2018-12-14T10:16:56.674Z,35.10
2018-12-14T10:19:24.896Z,35.77
2018-12-14T10:21:53.128Z,36.00
2018-12-14T10:24:21.435Z,36.40
2018-12-14T10:26:49.696Z,38.67
2018-12-14T10:29:17.776Z,40.20
2018-12-14T10:31:46.013Z,46.87
2018-12-14T10:34:14.314Z,52.53
2018-12-14T10:36:42.577Z,42.20
2018-12-14T10:39:10.785Z,33.90
2018-12-14T10:41:39.075Z,54.83
2018-12-14T10:44:07.773Z,34.53
2018-12-14T10:46:36.010Z,29.63
2018-12-14T10:49:04.441Z,32.80
2018-12-14T10:51:32.948Z,62.93
2018-12-14T10:54:01.101Z,32.53
2018-12-14T10:56:29.396Z,32.60
2018-12-14T10:58:57.668Z,40.20
2018-12-14T11:01:31.055Z,44.20
2018-12-14T11:03:59.376Z,40.70
2018-12-14T11:06:27.636Z,35.23
2018-12-14T11:08:55.916Z,28.80
2018-12-14T11:11:24.143Z,31.70
2018-12-14T11:13:52.376Z,30.97
2018-12-14T11:16:20.604Z,42.80
2018-12-14T11:18:48.840Z,30.33
2018-12-14T11:21:17.489Z,41.20
2018-12-14T11:23:45.837Z,25.43
2018-12-14T11:26:14.203Z,24.43
2018-12-14T11:28:42.479Z,21.93
2018-12-14T11:31:10.641Z,28.67
2018-12-14T11:33:38.807Z,30.63
2018-12-14T11:36:07.037Z,28.77
2018-12-14T11:38:35.308Z,22.20
2018-12-14T11:41:03.520Z,25.47
2018-12-14T11:43:31.898Z,32.70
2018-12-14T11:46:00.165Z,33.77
2018-12-14T11:48:28.362Z,20.00
2018-12-14T11:50:56.590Z,62.20
2018-12-14T11:53:24.796Z,23.90
2018-12-14T11:55:53.100Z,23.83
2018-12-14T11:58:21.263Z,30.87
2018-12-14T12:00:49.664Z,26.03
2018-12-14T12:03:17.872Z,25.77
2018-12-14T12:05:45.980Z,23.97
2018-12-14T12:08:14.499Z,22.37
2018-12-14T12:10:42.920Z,18.27
2018-12-14T12:13:11.188Z,19.00
2018-12-14T12:15:39.388Z,22.87
2018-12-14T12:18:07.681Z,32.30
2018-12-14T12:20:35.928Z,40.07
2018-12-14T12:23:04.138Z,32.40
2018-12-14T12:25:32.441Z,30.80
2018-12-14T12:28:00.704Z,28.03
2018-12-14T12:30:28.721Z,30.87
2018-12-14T12:32:57.000Z,28.70
2018-12-14T12:35:25.167Z,27.83
2018-12-14T12:37:53.356Z,32.43
2018-12-14T12:40:21.660Z,29.37
2018-12-14T12:42:49.908Z,27.00
2018-12-14T12:45:18.203Z,27.70
2018-12-14T12:47:46.464Z,24.17
2018-12-14T12:50:14.724Z,20.97
2018-12-14T12:52:43.038Z,21.30
2018-12-14T12:55:11.224Z,12.90
2018-12-14T12:57:39.445Z,11.40
2018-12-14T13:00:08.085Z,56.07
2018-12-14T13:02:36.261Z,14.40
2018-12-14T13:05:04.508Z,50.20
2018-12-14T13:07:32.739Z,16.23
2018-12-14T13:10:00.902Z,41.20
2018-12-14T13:12:29.222Z,19.13
2018-12-14T13:14:57.542Z,17.50
2018-12-14T13:17:25.704Z,20.57
2018-12-14T13:19:53.899Z,20.47
2018-12-14T13:22:22.201Z,20.03
2018-12-14T13:24:50.465Z,19.20
2018-12-14T13:27:20.373Z,17.33
2018-12-14T13:29:48.788Z,27.83
2018-12-14T13:32:17.088Z,16.50
2018-12-14T13:34:45.508Z,20.00
2018-12-14T13:37:13.641Z,17.00
2018-12-14T13:39:41.900Z,18.93
2018-12-14T13:42:10.101Z,13.70
2018-12-14T13:44:38.691Z,26.80
2018-12-14T13:47:06.936Z,19.63
2018-12-14T13:49:35.125Z,16.63
2018-12-14T13:52:03.351Z,31.70
2018-12-14T13:54:31.620Z,16.17
2018-12-14T13:56:59.811Z,13.20
2018-12-14T13:59:28.110Z,14.53
2018-12-14T14:01:56.430Z,19.03
2018-12-14T14:04:24.646Z,21.47
2018-12-14T14:06:52.900Z,21.73
2018-12-14T14:09:21.337Z,24.93
2018-12-14T14:11:49.536Z,34.90
2018-12-14T14:14:17.831Z,32.50
2018-12-14T14:16:47.050Z,32.57
2018-12-14T14:19:15.128Z,37.83
2018-12-14T14:21:43.436Z,33.43
2018-12-14T14:24:11.657Z,40.73
2018-12-14T14:26:44.446Z,34.20
2018-12-14T14:29:10.080Z,24.50
2018-12-14T14:31:38.292Z,19.83
2018-12-14T14:34:06.544Z,17.40
2018-12-14T14:36:34.753Z,20.60
2018-12-14T14:39:04.342Z,27.73
2018-12-14T14:41:32.608Z,29.20
2018-12-14T14:44:00.809Z,15.33
2018-12-14T14:46:29.108Z,23.27
2018-12-14T14:48:57.427Z,14.07
2018-12-14T14:51:25.948Z,16.83
2018-12-14T14:53:54.268Z,18.43
2018-12-14T14:56:22.589Z,18.03
2018-12-14T14:58:50.724Z,40.50
2018-12-14T15:01:18.985Z,18.50
2018-12-14T15:03:47.248Z,25.87
2018-12-14T15:06:15.412Z,13.87
2018-12-14T15:08:43.660Z,8.80
2018-12-14T15:11:11.884Z,11.30
2018-12-14T15:13:40.127Z,7.07
2018-12-14T15:16:08.603Z,13.63
2018-12-14T15:18:36.812Z,9.97
2018-12-14T15:21:05.033Z,10.03
2018-12-14T15:23:33.224Z,10.30
2018-12-14T15:26:01.409Z,12.80
2018-12-14T15:28:29.692Z,13.13
2018-12-14T15:30:57.918Z,11.23
2018-12-14T15:33:26.105Z,7.27
2018-12-14T15:35:54.409Z,14.30
2018-12-14T15:38:22.625Z,10.27
2018-12-14T15:40:50.998Z,12.13
2018-12-14T15:43:19.165Z,16.27
2018-12-14T15:45:47.308Z,12.10
2018-12-14T15:48:15.552Z,7.67
2018-12-14T15:50:44.620Z,7.70
2018-12-14T15:53:12.796Z,7.97
2018-12-14T15:55:40.888Z,9.30
2018-12-14T15:58:09.133Z,8.43
2018-12-14T16:00:37.411Z,9.37
2018-12-14T16:03:05.714Z,10.63
2018-12-14T16:05:34.052Z,9.80
2018-12-14T16:08:02.373Z,8.93
2018-12-14T16:10:30.690Z,12.90
2018-12-14T16:12:58.944Z,8.07
2018-12-14T16:15:27.234Z,7.23
2018-12-14T16:17:55.454Z,8.70
2018-12-14T16:20:23.616Z,11.53
2018-12-14T16:22:51.848Z,11.53
2018-12-14T16:25:20.083Z,22.30
2018-12-14T16:27:48.264Z,31.53
2018-12-14T16:30:16.448Z,31.70
2018-12-14T16:32:44.695Z,29.63
2018-12-14T16:35:12.893Z,22.43
2018-12-14T16:37:41.161Z,32.93
2018-12-14T16:40:09.448Z,58.53
2018-12-14T16:42:38.460Z,34.70
2018-12-14T16:45:06.976Z,43.87
2018-12-14T16:47:35.142Z,51.43
2018-12-14T16:50:03.461Z,47.20
2018-12-14T16:52:31.672Z,40.80
2018-12-14T16:55:00.056Z,43.10
2018-12-14T16:57:28.220Z,50.97
2018-12-14T16:59:56.420Z,72.53
2018-12-14T17:02:24.718Z,76.80
2018-12-14T17:04:52.979Z,54.00
2018-12-14T17:07:21.186Z,38.50
2018-12-14T17:09:49.480Z,37.00
2018-12-14T17:12:17.741Z,32.33
2018-12-14T17:14:45.940Z,33.87
2018-12-14T17:17:14.188Z,21.73
2018-12-14T17:19:42.461Z,29.83
2018-12-14T17:22:10.624Z,33.77
2018-12-14T17:24:38.808Z,36.80
2018-12-14T17:27:07.118Z,37.83
2018-12-14T17:29:35.339Z,38.03
2018-12-14T17:32:03.505Z,37.73
2018-12-14T17:34:31.698Z,41.03
2018-12-14T17:37:00.198Z,34.30
2018-12-14T17:39:28.440Z,27.73
2018-12-14T17:41:57.393Z,28.37
2018-12-14T17:44:25.553Z,35.20
2018-12-14T17:46:54.082Z,34.60
2018-12-14T17:49:22.248Z,40.37
2018-12-14T17:51:50.408Z,38.80
2018-12-14T17:54:18.644Z,22.40
2018-12-14T17:56:46.809Z,17.80
2018-12-14T17:59:15.024Z,18.70
2018-12-14T18:01:43.407Z,30.47
2018-12-14T18:04:11.537Z,37.27
2018-12-14T18:06:39.741Z,38.57
2018-12-14T18:09:07.910Z,41.93
2018-12-14T18:11:36.187Z,42.73
2018-12-14T18:14:04.455Z,38.27
2018-12-14T18:16:33.680Z,45.80
2018-12-14T18:19:02.424Z,50.87
2018-12-14T18:21:30.667Z,61.57
2018-12-14T18:23:58.920Z,54.53
2018-12-14T18:26:27.136Z,57.70
2018-12-14T18:28:55.427Z,56.83
2018-12-14T18:31:23.647Z,54.37
2018-12-14T18:33:51.792Z,62.60
2018-12-14T18:36:20.041Z,67.20
2018-12-14T18:38:48.307Z,62.43
2018-12-14T18:41:16.578Z,48.03
2018-12-14T18:43:44.776Z,46.67
2018-12-14T18:46:13.039Z,53.33
2018-12-14T18:48:41.225Z,51.50
2018-12-14T18:51:09.431Z,55.70
2018-12-14T18:53:37.779Z,72.53
2018-12-14T18:56:05.946Z,73.23
2018-12-14T18:58:34.097Z,62.03
2018-12-14T19:01:02.332Z,65.27
2018-12-14T19:03:30.518Z,55.47
2018-12-14T19:05:58.738Z,55.20
2018-12-14T19:08:27.054Z,49.30
2018-12-14T19:10:55.170Z,47.43
2018-12-14T19:13:23.416Z,45.20
2018-12-14T19:15:51.710Z,47.43
2018-12-14T19:18:19.979Z,38.50
2018-12-14T19:20:48.168Z,41.83
2018-12-14T19:23:19.600Z,33.97
2018-12-14T19:25:46.642Z,31.60
2018-12-14T19:28:14.949Z,36.03
2018-12-14T19:30:43.138Z,66.30
2018-12-14T19:33:11.405Z,57.73
2018-12-14T19:35:39.602Z,42.90
2018-12-14T19:38:08.103Z,44.07
2018-12-14T19:40:36.394Z,41.57
2018-12-14T19:43:04.742Z,38.13
2018-12-14T19:45:33.000Z,46.33
2018-12-14T19:48:01.279Z,46.10
2018-12-14T19:50:29.397Z,71.80
2018-12-14T19:52:57.561Z,53.33
2018-12-14T19:55:25.830Z,55.83
2018-12-14T19:57:55.063Z,54.00
2018-12-14T20:00:23.308Z,54.13
2018-12-14T20:02:51.602Z,52.50
2018-12-14T20:05:19.764Z,50.30
2018-12-14T20:07:47.964Z,49.17
2018-12-14T20:10:16.261Z,47.33
2018-12-14T20:12:44.382Z,48.33
2018-12-14T20:15:12.628Z,52.80
2018-12-14T20:17:40.841Z,49.97
2018-12-14T20:20:09.087Z,52.17
2018-12-14T20:22:37.284Z,44.97
2018-12-14T20:25:05.889Z,52.07
2018-12-14T20:27:34.101Z,54.70
2018-12-14T20:30:02.264Z,69.33
2018-12-14T20:32:30.642Z,72.63
2018-12-14T20:34:59.053Z,76.80
2018-12-14T20:37:27.196Z,54.27
2018-12-14T20:39:55.448Z,57.03
2018-12-14T20:42:23.668Z,45.20
2018-12-14T20:44:51.877Z,42.87
2018-12-14T20:47:20.162Z,39.93
2018-12-14T20:49:48.421Z,42.50
2018-12-14T20:52:17.436Z,44.60
2018-12-14T20:54:45.651Z,46.07
2018-12-14T20:57:13.889Z,46.30
2018-12-14T20:59:42.112Z,46.70
2018-12-14T21:02:10.304Z,48.60
2018-12-14T21:04:38.547Z,52.27
2018-12-14T21:07:06.776Z,55.77
2018-12-14T21:09:35.046Z,53.80
2018-12-14T21:12:03.157Z,41.93
2018-12-14T21:14:31.627Z,37.50
2018-12-14T21:17:00.002Z,39.30
2018-12-14T21:19:28.227Z,37.17
2018-12-14T21:21:56.501Z,39.00
2018-12-14T21:24:24.769Z,43.70
2018-12-14T21:26:52.986Z,45.20
2018-12-14T21:29:21.252Z,42.20
2018-12-14T21:31:49.418Z,42.33
2018-12-14T21:34:17.647Z,42.23
2018-12-14T21:36:45.869Z,37.83
2018-12-14T21:39:14.112Z,32.80
2018-12-14T21:41:42.319Z,34.27
2018-12-14T21:44:10.628Z,37.87
2018-12-14T21:46:38.901Z,81.67
2018-12-14T21:49:07.096Z,41.17
2018-12-14T21:51:35.387Z,40.40
2018-12-14T21:54:03.652Z,42.20
2018-12-14T21:56:31.844Z,51.23
2018-12-14T21:59:00.115Z,51.47
2018-12-14T22:01:28.467Z,48.03
2018-12-14T22:03:56.689Z,46.00
2018-12-14T22:06:24.929Z,44.17
2018-12-14T22:08:53.229Z,44.37
2018-12-14T22:11:21.392Z,59.13
2018-12-14T22:13:49.572Z,106.50
2018-12-14T22:16:18.592Z,122.67
2018-12-14T22:18:47.011Z,96.57
2018-12-14T22:21:15.278Z,52.97
2018-12-14T22:23:43.468Z,41.20
2018-12-14T22:26:11.771Z,40.47
2018-12-14T22:28:39.937Z,44.07
2018-12-14T22:31:07.920Z,45.63
2018-12-14T22:33:36.331Z,41.97
2018-12-14T22:36:04.592Z,40.90
2018-12-14T22:38:32.794Z,37.67
2018-12-14T22:41:01.016Z,35.93
2018-12-14T22:43:29.210Z,33.73
2018-12-14T22:45:57.381Z,34.70
2018-12-14T22:48:25.564Z,38.43
2018-12-14T22:50:53.970Z,37.10
2018-12-14T22:53:22.132Z,35.90
2018-12-14T22:55:50.357Z,33.70
2018-12-14T22:58:18.577Z,34.63
2018-12-14T23:00:53.976Z,33.70
2018-12-14T23:03:22.141Z,35.33
2018-12-14T23:05:50.622Z,33.10
2018-12-14T23:08:18.879Z,35.53
2018-12-14T23:10:47.960Z,34.43
2018-12-14T23:13:16.280Z,38.10
2018-12-14T23:15:44.534Z,37.50
2018-12-14T23:18:12.820Z,35.40
2018-12-14T23:20:40.985Z,33.93
2018-12-14T23:23:09.476Z,33.90
2018-12-14T23:25:37.725Z,33.40
2018-12-14T23:28:05.915Z,43.03
2018-12-14T23:30:34.221Z,42.53
2018-12-14T23:33:02.444Z,42.40
2018-12-14T23:35:30.585Z,45.77
2018-12-14T23:37:58.800Z,42.20
2018-12-14T23:40:27.105Z,43.73
2018-12-14T23:42:55.368Z,39.33
2018-12-14T23:45:23.540Z,36.90
2018-12-14T23:47:51.863Z,44.80
2018-12-14T23:50:20.125Z,36.00
2018-12-14T23:52:48.346Z,89.03
2018-12-14T23:55:16.622Z,35.53
2018-12-14T23:57:44.884Z,31.37
